Time,TemperatureF,DewpointF,PressureIn,WindDirection,WindDirectionDegrees,WindSpeedMPH,WindSpeedGustMPH,Humidity,HourlyPrecipIn,Conditions,Clouds,dailyrainin,SoftwareType,DateUTC
2013-03-05 00:01:00,63.0,40.0,29.98,SSW,195,0.0,0.0,43,0.00,,,0.00,,2013-03-05 07:01:00,
2013-03-05 00:11:00,63.0,40.0,29.98,SSW,195,0.0,0.0,43,0.00,,,0.00,,2013-03-05 07:11:00,
2013-03-05 00:21:00,63.0,41.0,29.97,SSW,195,0.0,0.0,44,0.00,,,0.00,,2013-03-05 07:21:00,
2013-03-05 00:31:00,62.0,40.0,29.97,SSW,195,0.0,0.0,44,0.00,,,0.00,,2013-03-05 07:31:00,
2013-03-05 00:41:00,62.0,40.0,29.97,SSW,195,0.0,0.0,44,0.00,,,0.00,,2013-03-05 07:41:00,
2013-03-05 00:51:00,62.0,40.0,29.97,SSW,194,0.0,0.0,45,0.00,,,0.00,,2013-03-05 07:51:00,
2013-03-05 01:01:00,62.0,40.0,29.97,SSW,195,0.0,0.0,45,0.00,,,0.00,,2013-03-05 08:01:00,
2013-03-05 01:11:00,62.0,40.0,29.97,SSW,195,0.0,0.0,45,0.00,,,0.00,,2013-03-05 08:11:00,
2013-03-05 01:21:00,61.0,40.0,29.97,SSW,194,0.0,0.0,45,0.00,,,0.00,,2013-03-05 08:21:00,
2013-03-05 01:31:00,61.0,41.0,29.97,SSW,194,0.0,0.0,47,0.00,,,0.00,,2013-03-05 08:31:00,
2013-03-05 01:41:00,61.0,41.0,29.97,SSW,194,0.0,0.0,47,0.00,,,0.00,,2013-03-05 08:41:00,
2013-03-05 01:51:00,61.0,40.0,29.97,SW,236,2.0,5.0,46,0.00,,,0.00,,2013-03-05 08:51:00,
2013-03-05 02:01:00,60.0,40.0,29.97,SSE,160,0.0,1.0,47,0.00,,,0.00,,2013-03-05 09:01:00,
2013-03-05 02:11:00,60.0,40.0,29.97,SSE,161,0.0,0.0,47,0.00,,,0.00,,2013-03-05 09:11:00,
2013-03-05 02:21:00,60.0,40.0,29.97,SSE,161,0.0,0.0,47,0.00,,,0.00,,2013-03-05 09:21:00,
2013-03-05 02:31:00,60.0,40.0,29.97,SSE,161,0.0,0.0,48,0.00,,,0.00,,2013-03-05 09:31:00,
2013-03-05 02:42:00,60.0,40.0,29.97,SSE,161,0.0,0.0,48,0.00,,,0.00,,2013-03-05 09:42:00,
2013-03-05 02:51:00,60.0,40.0,29.97,East,88,0.0,0.0,48,0.00,,,0.00,,2013-03-05 09:51:00,
2013-03-05 03:01:00,59.0,40.0,29.97,East,88,0.0,0.0,49,0.00,,,0.00,,2013-03-05 10:01:00,
2013-03-05 03:11:00,59.0,40.0,29.97,East,88,0.0,0.0,49,0.00,,,0.00,,2013-03-05 10:11:00,
2013-03-05 03:21:00,58.0,39.0,29.96,East,88,0.0,0.0,50,0.00,,,0.00,,2013-03-05 10:21:00,
2013-03-05 03:31:00,58.0,40.0,29.96,East,88,0.0,0.0,51,0.00,,,0.00,,2013-03-05 10:31:00,
2013-03-05 03:41:00,58.0,40.0,29.96,East,88,0.0,0.0,51,0.00,,,0.00,,2013-03-05 10:41:00,
2013-03-05 03:52:00,57.0,40.0,29.96,East,88,0.0,0.0,53,0.00,,,0.00,,2013-03-05 10:52:00,
2013-03-05 04:01:00,57.0,40.0,29.96,East,88,0.0,0.0,53,0.00,,,0.00,,2013-03-05 11:01:00,
2013-03-05 04:11:00,56.0,40.0,29.96,East,96,0.0,1.0,55,0.00,,,0.00,,2013-03-05 11:11:00,
2013-03-05 04:21:00,56.0,40.0,29.96,East,96,0.0,1.0,55,0.00,,,0.00,,2013-03-05 11:21:00,
2013-03-05 04:32:00,56.0,40.0,29.96,East,96,0.0,0.0,55,0.00,,,0.00,,2013-03-05 11:32:00,
2013-03-05 04:41:00,56.0,40.0,29.96,East,96,0.0,0.0,55,0.00,,,0.00,,2013-03-05 11:41:00,
2013-03-05 04:52:00,55.0,39.0,29.96,East,96,0.0,0.0,55,0.00,,,0.00,,2013-03-05 11:52:00,
2013-03-05 05:02:00,55.0,40.0,29.96,East,96,0.0,0.0,56,0.00,,,0.00,,2013-03-05 12:02:00,
2013-03-05 05:11:00,55.0,40.0,29.96,East,96,0.0,0.0,56,0.00,,,0.00,,2013-03-05 12:11:00,
2013-03-05 05:22:00,54.0,39.0,29.95,East,96,0.0,0.0,57,0.00,,,0.00,,2013-03-05 12:22:00,
2013-03-05 05:32:00,54.0,40.0,29.96,East,96,0.0,0.0,58,0.00,,,0.00,,2013-03-05 12:32:00,
2013-03-05 05:42:00,54.0,40.0,29.96,East,96,0.0,0.0,58,0.00,,,0.00,,2013-03-05 12:42:00,
2013-03-05 05:52:00,54.0,40.0,29.96,East,96,0.0,0.0,58,0.00,,,0.00,,2013-03-05 12:52:00,
2013-03-05 06:01:00,54.0,40.0,29.96,East,96,0.0,0.0,59,0.00,,,0.00,,2013-03-05 13:01:00,
2013-03-05 06:11:00,54.0,40.0,29.96,East,96,0.0,0.0,59,0.00,,,0.00,,2013-03-05 13:11:00,
2013-03-05 06:21:00,54.0,40.0,29.98,East,96,0.0,0.0,60,0.00,,,0.00,,2013-03-05 13:21:00,
2013-03-05 06:31:00,54.0,40.0,29.98,East,96,0.0,0.0,59,0.00,,,0.00,,2013-03-05 13:31:00,
2013-03-05 06:42:00,54.0,40.0,29.98,East,96,0.0,0.0,59,0.00,,,0.00,,2013-03-05 13:42:00,
2013-03-05 06:52:00,53.0,39.0,29.98,East,96,0.0,0.0,60,0.00,,,0.00,,2013-03-05 13:52:00,
2013-03-05 07:02:00,53.0,39.0,29.99,East,96,0.0,0.0,60,0.00,,,0.00,,2013-03-05 14:02:00,
2013-03-05 07:11:00,53.0,39.0,29.99,East,96,0.0,0.0,60,0.00,,,0.00,,2013-03-05 14:11:00,
2013-03-05 07:21:00,52.0,39.0,29.98,East,96,0.0,0.0,61,0.00,,,0.00,,2013-03-05 14:21:00,
2013-03-05 07:31:00,52.0,39.0,29.99,East,96,0.0,0.0,61,0.00,,,0.00,,2013-03-05 14:31:00,
2013-03-05 07:41:00,52.0,39.0,29.99,East,96,0.0,0.0,61,0.00,,,0.00,,2013-03-05 14:41:00,
2013-03-05 07:52:00,52.0,40.0,29.99,East,96,0.0,0.0,63,0.00,,,0.00,,2013-03-05 14:52:00,
2013-03-05 08:01:00,53.0,40.0,29.99,East,96,0.0,0.0,62,0.00,,,0.00,,2013-03-05 15:01:00,
2013-03-05 08:11:00,53.0,40.0,29.99,East,96,0.0,0.0,62,0.00,,,0.00,,2013-03-05 15:11:00,
2013-03-05 08:21:00,54.0,40.0,30.00,East,96,0.0,0.0,59,0.00,,,0.00,,2013-03-05 15:21:00,
2013-03-05 08:31:00,57.0,41.0,30.00,East,95,0.0,1.0,55,0.00,,,0.00,,2013-03-05 15:31:00,
2013-03-05 08:42:00,57.0,41.0,30.00,East,95,0.0,1.0,55,0.00,,,0.00,,2013-03-05 15:42:00,
2013-03-05 08:52:00,58.0,41.0,30.00,East,94,0.0,1.0,54,0.00,,,0.00,,2013-03-05 15:52:00,
2013-03-05 09:01:00,59.0,42.0,30.01,East,92,0.0,1.0,54,0.00,,,0.00,,2013-03-05 16:01:00,
2013-03-05 09:11:00,59.0,42.0,30.01,East,92,0.0,1.0,54,0.00,,,0.00,,2013-03-05 16:11:00,
2013-03-05 09:21:00,61.0,43.0,30.01,NE,55,0.0,1.0,51,0.00,,,0.00,,2013-03-05 16:21:00,
2013-03-05 09:30:00,63.0,45.0,30.01,NE,53,0.0,0.0,51,0.00,,,0.00,,2013-03-05 16:30:00,
2013-03-05 09:31:00,62.0,43.0,30.01,NE,55,0.0,0.0,50,0.00,,,0.00,,2013-03-05 16:31:00,
2013-03-05 09:41:00,62.0,43.0,30.01,NE,55,0.0,0.0,50,0.00,,,0.00,,2013-03-05 16:41:00,
2013-03-05 09:52:00,63.0,45.0,30.01,NE,53,0.0,0.0,51,0.00,,,0.00,,2013-03-05 16:52:00,
2013-03-05 10:01:00,63.0,45.0,30.01,NE,53,0.0,0.0,51,0.00,,,0.00,,2013-03-05 17:01:00,
2013-03-05 10:11:00,63.0,45.0,30.01,NE,53,0.0,0.0,51,0.00,,,0.00,,2013-03-05 17:11:00,
2013-03-05 10:21:00,63.0,45.0,30.01,NE,53,0.0,0.0,51,0.00,,,0.00,,2013-03-05 17:21:00,
2013-03-05 13:52:00,79.0,42.0,29.95,NE,44,2.0,6.0,27,0.00,,,0.00,,2013-03-05 20:52:00,
2013-03-05 14:01:00,79.0,43.0,29.94,ENE,67,1.0,3.0,28,0.00,,,0.00,,2013-03-05 21:01:00,
2013-03-05 14:11:00,79.0,43.0,29.94,ENE,67,1.0,3.0,28,0.00,,,0.00,,2013-03-05 21:11:00,
2013-03-05 14:21:00,79.0,43.0,29.94,ENE,67,1.0,3.0,28,0.00,,,0.00,,2013-03-05 21:21:00,
2013-03-05 14:31:00,79.0,43.0,29.94,ENE,67,1.0,3.0,28,0.00,,,0.00,,2013-03-05 21:31:00,
2013-03-05 18:01:00,80.0,40.0,29.88,South,178,0.0,7.0,24,0.00,,,0.00,,2013-03-06 01:01:00,
2013-03-05 18:11:00,80.0,40.0,29.88,South,178,0.0,7.0,24,0.00,,,0.00,,2013-03-06 01:11:00,
2013-03-05 18:21:00,80.0,40.0,29.88,SSW,206,1.0,6.0,24,0.00,,,0.00,,2013-03-06 01:21:00,
2013-03-05 18:31:00,80.0,40.0,29.88,South,169,2.0,9.0,24,0.00,,,0.00,,2013-03-06 01:31:00,
2013-03-05 18:41:00,80.0,40.0,29.88,South,169,2.0,9.0,24,0.00,,,0.00,,2013-03-06 01:41:00,
2013-03-05 18:51:00,79.0,40.0,29.88,SSE,167,0.0,3.0,25,0.00,,,0.00,,2013-03-06 01:51:00,
2013-03-05 19:01:00,78.0,39.0,29.88,SSE,164,2.0,6.0,25,0.00,,,0.00,,2013-03-06 02:01:00,
2013-03-05 19:11:00,78.0,39.0,29.88,SSE,164,2.0,6.0,25,0.00,,,0.00,,2013-03-06 02:11:00,
2013-03-05 19:21:00,77.0,39.0,29.88,SSE,157,0.0,3.0,26,0.00,,,0.00,,2013-03-06 02:21:00,
2013-03-05 19:31:00,77.0,39.0,29.88,SSE,157,0.0,3.0,26,0.00,,,0.00,,2013-03-06 02:31:00,
2013-03-05 19:41:00,77.0,39.0,29.88,SSE,157,0.0,3.0,26,0.00,,,0.00,,2013-03-06 02:41:00,
2013-03-05 19:51:00,75.0,40.0,29.89,SE,133,0.0,1.0,28,0.00,,,0.00,,2013-03-06 02:51:00,
2013-03-05 20:01:00,75.0,40.0,29.89,SSE,149,1.0,3.0,28,0.00,,,0.00,,2013-03-06 03:01:00,
2013-03-05 20:11:00,75.0,40.0,29.89,SSE,149,1.0,3.0,28,0.00,,,0.00,,2013-03-06 03:11:00,
2013-03-05 20:21:00,74.0,39.0,29.89,SE,138,1.0,3.0,28,0.00,,,0.00,,2013-03-06 03:21:00,
2013-03-05 20:31:00,73.0,39.0,29.89,SSE,157,2.0,5.0,29,0.00,,,0.00,,2013-03-06 03:31:00,
2013-03-05 20:41:00,73.0,39.0,29.89,SSE,157,2.0,5.0,29,0.00,,,0.00,,2013-03-06 03:41:00,
2013-03-05 20:52:00,72.0,39.0,29.89,SSE,159,0.0,0.0,30,0.00,,,0.00,,2013-03-06 03:52:00,
2013-03-05 21:01:00,71.0,39.0,29.90,SSE,157,0.0,1.0,31,0.00,,,0.00,,2013-03-06 04:01:00,
2013-03-05 21:11:00,71.0,39.0,29.90,SSE,157,0.0,1.0,31,0.00,,,0.00,,2013-03-06 04:11:00,
2013-03-05 21:21:00,70.0,39.0,29.90,SSE,155,0.0,0.0,32,0.00,,,0.00,,2013-03-06 04:21:00,
2013-03-05 21:31:00,69.0,38.0,29.90,SSE,155,0.0,0.0,32,0.00,,,0.00,,2013-03-06 04:31:00,
2013-03-05 21:41:00,69.0,38.0,29.90,SSE,155,0.0,0.0,32,0.00,,,0.00,,2013-03-06 04:41:00,
2013-03-05 21:52:00,68.0,39.0,29.90,SSE,155,0.0,0.0,34,0.00,,,0.00,,2013-03-06 04:52:00,
2013-03-05 22:01:00,68.0,39.0,29.90,SSE,155,0.0,0.0,34,0.00,,,0.00,,2013-03-06 05:01:00,
2013-03-05 22:11:00,67.0,38.0,29.91,SSE,155,0.0,0.0,35,0.00,,,0.00,,2013-03-06 05:11:00,
2013-03-05 22:22:00,67.0,38.0,29.91,SSE,155,0.0,0.0,35,0.00,,,0.00,,2013-03-06 05:22:00,
2013-03-05 22:32:00,67.0,39.0,29.91,SSE,155,0.0,0.0,36,0.00,,,0.00,,2013-03-06 05:32:00,
2013-03-05 22:42:00,67.0,39.0,29.91,SSE,155,0.0,0.0,36,0.00,,,0.00,,2013-03-06 05:42:00,
2013-03-05 22:52:00,65.0,39.0,29.91,SSE,155,0.0,0.0,38,0.00,,,0.00,,2013-03-06 05:52:00,
2013-03-05 23:01:00,65.0,39.0,29.90,SSE,156,0.0,0.0,38,0.00,,,0.00,,2013-03-06 06:01:00,
2013-03-05 23:11:00,65.0,39.0,29.90,SSE,156,0.0,0.0,38,0.00,,,0.00,,2013-03-06 06:11:00,
2013-03-05 23:21:00,65.0,39.0,29.90,SSE,154,0.0,1.0,39,0.00,,,0.00,,2013-03-06 06:21:00,
2013-03-05 23:31:00,65.0,39.0,29.90,SE,145,0.0,0.0,38,0.00,,,0.00,,2013-03-06 06:31:00,
2013-03-05 23:41:00,65.0,39.0,29.90,SE,145,0.0,0.0,38,0.00,,,0.00,,2013-03-06 06:41:00,
2013-03-05 23:52:00,65.0,39.0,29.89,SE,145,0.0,0.0,39,0.00,,,0.00,,2013-03-06 06:52:00,